Time;durP1;ratioP1;P1;durP2;ratioP2;P2;SDS_P1;SDS_P2;PMS_P1;PMS_P2;Temp;Humidity;BMP_temperature;BMP_pressure;BME280_temperature;BME280_humidity;BME280_pressure;Samples;Min_cycle;Max_cycle;Signal;HPM_P1;HPM_P2
2023/01/27 05:28:15;;;;;;;61.55;19.33;;;-1.30;99.90;;;;;;7577393;19;20383;-70
2023/01/27 05:30:48;;;;;;;47.53;15.63;;;-1.30;99.90;;;;;;7576231;19;20509;-70
2023/01/27 05:33:20;;;;;;;55.80;18.60;;;-1.30;99.90;;;;;;7603106;19;21074;-72
2023/01/27 05:35:52;;;;;;;60.97;18.02;;;-1.20;99.90;;;;;;7583076;19;20014;-72
2023/01/27 05:38:24;;;;;;;48.88;16.13;;;-1.10;99.90;;;;;;7604833;19;20018;-72
2023/01/27 05:41:01;;;;;;;56.58;17.30;;;-1.10;99.90;;;;;;7586801;19;21539;-71
2023/01/27 05:43:38;;;;;;;50.40;17.13;;;-1.00;99.90;;;;;;7582079;19;21929;-72
2023/01/27 05:46:15;;;;;;;60.22;18.73;;;-0.90;99.90;;;;;;7574739;19;20017;-70
2023/01/27 05:48:50;;;;;;;53.67;18.75;;;-0.90;99.90;;;;;;7546008;19;21110;-72
2023/01/27 05:51:24;;;;;;;50.03;18.35;;;-0.80;99.90;;;;;;7550413;19;20056;-72
2023/01/27 05:53:57;;;;;;;48.80;17.67;;;-0.80;99.90;;;;;;7573706;19;20027;-70
2023/01/27 05:56:29;;;;;;;55.60;18.50;;;-0.70;99.90;;;;;;7552183;19;20014;-72
2023/01/27 05:59:01;;;;;;;42.85;16.95;;;-0.70;99.90;;;;;;7574730;19;20022;-72
2023/01/27 06:01:34;;;;;;;53.45;16.77;;;-0.70;99.90;;;;;;7596442;19;20519;-73
2023/01/27 06:04:06;;;;;;;53.13;17.17;;;-0.60;99.90;;;;;;7602854;19;20021;-72
2023/01/27 06:06:38;;;;;;;56.50;17.35;;;-0.70;99.90;;;;;;7594702;19;20022;-71
2023/01/27 06:09:11;;;;;;;52.45;19.45;;;-0.60;99.90;;;;;;7606437;19;20017;-71
2023/01/27 06:11:43;;;;;;;51.40;17.55;;;-0.60;99.90;;;;;;7599161;19;20813;-72
2023/01/27 06:14:15;;;;;;;48.33;16.95;;;-0.50;99.90;;;;;;7619591;19;21176;-71
2023/01/27 06:16:48;;;;;;;46.85;16.60;;;-0.60;99.90;;;;;;7594414;19;21483;-73
2023/01/27 06:19:20;;;;;;;47.55;15.70;;;-0.60;99.90;;;;;;7611455;19;20014;-72
2023/01/27 06:21:52;;;;;;;42.38;15.77;;;-0.50;99.90;;;;;;7606853;19;20393;-72
2023/01/27 06:24:24;;;;;;;44.97;15.90;;;-0.50;99.90;;;;;;7615666;19;20022;-72
2023/01/27 06:26:56;;;;;;;44.78;16.02;;;-0.50;99.90;;;;;;7606187;19;20018;-72
2023/01/27 06:29:28;;;;;;;58.05;16.55;;;-0.50;99.90;;;;;;7600163;19;20011;-72
2023/01/27 06:32:02;;;;;;;49.38;16.88;;;-0.50;99.90;;;;;;7580296;19;20016;-69
2023/01/27 06:34:34;;;;;;;41.85;15.13;;;-0.40;99.90;;;;;;7597319;19;21010;-70
2023/01/27 06:37:06;;;;;;;43.40;15.82;;;-0.30;99.90;;;;;;7618760;19;20541;-70
2023/01/27 06:39:39;;;;;;;53.83;16.65;;;-0.30;99.90;;;;;;7534667;19;22181;-72
2023/01/27 06:42:11;;;;;;;49.97;17.13;;;-0.30;99.90;;;;;;7542979;19;20022;-71
2023/01/27 06:44:43;;;;;;;45.45;16.23;;;-0.30;99.90;;;;;;7582377;19;20025;-71
2023/01/27 06:47:15;;;;;;;44.70;15.88;;;-0.30;99.90;;;;;;7540905;19;20649;-71
2023/01/27 06:49:48;;;;;;;49.22;16.00;;;-0.30;99.90;;;;;;7542535;19;20017;-72
2023/01/27 06:52:20;;;;;;;47.60;14.35;;;-0.30;99.90;;;;;;7526692;19;20022;-73
2023/01/27 06:54:52;;;;;;;43.10;16.00;;;-0.30;99.90;;;;;;7527684;19;20029;-72
2023/01/27 06:57:25;;;;;;;44.22;15.02;;;-0.30;99.90;;;;;;7551591;19;20077;-72
2023/01/27 06:59:57;;;;;;;48.97;15.25;;;-0.30;99.90;;;;;;7548493;19;20037;-72
2023/01/27 07:02:30;;;;;;;45.15;14.45;;;-0.30;99.90;;;;;;7555606;19;20014;-72
2023/01/27 07:05:03;;;;;;;45.17;15.85;;;-0.30;99.90;;;;;;7553693;19;20089;-72
2023/01/27 07:07:35;;;;;;;46.00;15.95;;;-0.30;99.90;;;;;;7512761;19;20026;-71
2023/01/27 07:10:08;;;;;;;42.78;15.02;;;-0.30;99.90;;;;;;7507030;19;22638;-73
2023/01/27 07:12:41;;;;;;;55.97;16.80;;;-0.30;99.90;;;;;;7511951;19;20029;-72
2023/01/27 07:15:13;;;;;;;44.47;15.38;;;-0.30;99.90;;;;;;7512469;19;20018;-72
2023/01/27 07:17:45;;;;;;;47.63;17.27;;;-0.30;99.90;;;;;;7548506;19;20046;-72
2023/01/27 07:20:17;;;;;;;50.47;17.60;;;-0.30;99.90;;;;;;7571901;19;20015;-72
2023/01/27 07:22:49;;;;;;;46.17;15.63;;;-0.30;99.90;;;;;;7583628;19;20011;-72
2023/01/27 07:25:22;;;;;;;49.85;16.05;;;-0.30;99.90;;;;;;7571528;19;20954;-73
2023/01/27 07:27:59;;;;;;;50.03;16.73;;;-0.30;99.90;;;;;;7582154;19;20049;-73
2023/01/27 07:30:37;;;;;;;48.67;17.42;;;-0.30;99.90;;;;;;7565290;19;20014;-73
2023/01/27 07:33:11;;;;;;;53.28;17.88;;;-0.30;99.90;;;;;;7583243;19;20398;-73
2023/01/27 07:35:48;;;;;;;50.25;17.15;;;-0.30;99.90;;;;;;7562065;19;20014;-72
2023/01/27 07:38:21;;;;;;;48.75;17.02;;;-0.20;99.90;;;;;;7598400;19;20014;-72
2023/01/27 07:40:53;;;;;;;56.30;19.58;;;-0.20;99.90;;;;;;7552606;19;20475;-72
2023/01/27 07:43:25;;;;;;;53.70;19.75;;;-0.20;99.90;;;;;;7551620;19;21045;-72
2023/01/27 07:45:58;;;;;;;49.33;18.35;;;-0.20;99.90;;;;;;7572796;19;21168;-72
2023/01/27 07:48:30;;;;;;;58.40;20.85;;;-0.20;99.90;;;;;;7556482;19;20006;-72
2023/01/27 07:51:02;;;;;;;55.00;19.17;;;-0.20;99.90;;;;;;7583620;19;20043;-72
2023/01/27 07:53:34;;;;;;;56.97;20.45;;;-0.20;99.90;;;;;;7591802;19;20022;-72
2023/01/27 07:56:10;;;;;;;51.90;17.88;;;-0.10;99.90;;;;;;7596829;19;20026;-72
2023/01/27 07:58:42;;;;;;;48.45;16.23;;;-0.10;99.90;;;;;;7573917;19;20022;-72
2023/01/27 08:01:15;;;;;;;57.20;16.85;;;-0.10;99.90;;;;;;7569984;19;20625;-72
2023/01/27 08:03:47;;;;;;;49.88;16.55;;;-0.10;99.90;;;;;;7582288;19;20014;-72
2023/01/27 08:06:19;;;;;;;45.55;15.60;;;0.00;99.90;;;;;;7552335;19;20034;-72
2023/01/27 08:08:51;;;;;;;42.55;14.55;;;0.00;99.90;;;;;;7599597;19;20121;-71
2023/01/27 08:11:24;;;;;;;39.78;14.77;;;0.10;99.90;;;;;;7599145;19;20018;-72
2023/01/27 08:13:56;;;;;;;44.40;15.93;;;0.10;99.90;;;;;;7581977;19;20034;-72
2023/01/27 08:16:29;;;;;;;44.97;15.98;;;0.20;99.90;;;;;;7576370;19;21047;-72
2023/01/27 08:19:01;;;;;;;44.65;15.75;;;0.20;99.90;;;;;;7557350;19;20014;-72
2023/01/27 08:21:33;;;;;;;47.10;16.02;;;0.20;99.90;;;;;;6535145;19;9999933;-72
2023/01/27 08:24:05;;;;;;;40.58;14.90;;;0.20;99.90;;;;;;7576514;19;20018;-72
2023/01/27 08:26:37;;;;;;;45.38;16.42;;;0.20;99.90;;;;;;7580714;19;20021;-71
2023/01/27 08:29:09;;;;;;;38.17;13.90;;;0.20;99.90;;;;;;7573338;19;20035;-71
2023/01/27 08:31:41;;;;;;;46.40;17.17;;;0.30;99.90;;;;;;7593496;19;20019;-71
2023/01/27 08:34:15;;;;;;;51.05;17.88;;;0.30;99.90;;;;;;7583632;19;20025;-71
2023/01/27 08:36:48;;;;;;;48.13;15.25;;;0.20;99.90;;;;;;7547835;19;20018;-72
2023/01/27 08:39:20;;;;;;;48.85;16.02;;;0.10;99.90;;;;;;7570373;19;20093;-72
2023/01/27 08:41:52;;;;;;;43.50;15.10;;;0.10;99.90;;;;;;7539038;19;20583;-72
2023/01/27 08:44:27;;;;;;;45.50;15.52;;;0.10;99.90;;;;;;7576876;19;20053;-73
2023/01/27 08:46:59;;;;;;;49.67;16.25;;;0.10;99.90;;;;;;7590752;19;21246;-73
2023/01/27 08:49:31;;;;;;;44.63;16.58;;;0.20;99.90;;;;;;7597767;19;20019;-71
2023/01/27 08:52:04;;;;;;;46.22;15.73;;;0.20;99.90;;;;;;7591578;19;20488;-72
2023/01/27 08:54:36;;;;;;;48.30;16.42;;;0.20;99.90;;;;;;7570658;19;20022;-71
2023/01/27 08:57:08;;;;;;;42.85;16.70;;;0.20;99.90;;;;;;7582040;19;20017;-72
2023/01/27 08:59:40;;;;;;;39.87;15.33;;;0.10;99.90;;;;;;7587663;19;20085;-72
2023/01/27 09:02:13;;;;;;;41.78;16.27;;;0.10;99.90;;;;;;7546650;19;20022;-72
2023/01/27 15:36:26;;;;;;;46.50;15.85;;;-0.20;99.90;;;;;;7634062;19;20333;-75
2023/01/27 15:39:10;;;;;;;48.15;15.88;;;-0.20;99.90;;;;;;7630076;19;20822;-75
2023/01/27 15:42:02;;;;;;;46.55;17.20;;;-0.20;99.90;;;;;;7635160;19;20028;-74
2023/01/27 15:44:40;;;;;;;47.47;19.23;;;-0.20;99.90;;;;;;7630928;19;20018;-76
2023/01/27 15:47:25;;;;;;;54.55;22.55;;;-0.10;99.90;;;;;;7630025;19;20022;-76
2023/01/27 15:50:05;;;;;;;46.80;20.38;;;-0.10;99.90;;;;;;7649562;19;20021;-76
2023/01/27 15:52:42;;;;;;;46.40;19.27;;;0.00;99.90;;;;;;7643792;19;21304;-76
2023/01/27 15:55:27;;;;;;;54.25;21.33;;;0.00;99.90;;;;;;7645677;19;20018;-76
2023/01/27 15:58:15;;;;;;;78.28;35.25;;;0.10;99.90;;;;;;7641763;19;20042;-76
2023/01/27 16:00:51;;;;;;;55.63;21.52;;;0.10;99.90;;;;;;7641607;19;20121;-75
2023/01/27 16:03:36;;;;;;;39.65;16.20;;;0.10;99.90;;;;;;7643289;19;20101;-76
2023/01/27 16:06:23;;;;;;;45.40;15.15;;;0.20;99.90;;;;;;7633954;19;20069;-76
2023/01/27 16:09:03;;;;;;;43.85;14.68;;;0.20;99.90;;;;;;7128958;19;10000059;-75
2023/01/27 16:11:40;;;;;;;42.38;16.50;;;0.20;99.90;;;;;;7125443;19;10001414;-76
2023/01/27 16:14:15;;;;;;;40.92;17.00;;;0.20;99.90;;;;;;7638064;19;20007;-76
2023/01/27 16:16:50;;;;;;;44.08;16.42;;;0.30;99.90;;;;;;7638319;19;20014;-76
2023/01/27 16:19:26;;;;;;;44.85;17.73;;;0.30;99.90;;;;;;7641029;19;20111;-76
2023/01/27 16:22:04;;;;;;;43.85;16.75;;;0.30;99.90;;;;;;7646937;19;20018;-75
2023/01/27 16:25:09;;;;;;;48.22;18.15;;;0.30;99.90;;;;;;7651488;19;20010;-76
2023/01/27 16:27:50;;;;;;;45.45;17.60;;;0.30;99.90;;;;;;7657148;19;20026;-76
2023/01/27 16:30:41;;;;;;;42.97;16.38;;;0.30;99.90;;;;;;7658478;19;20006;-76
2023/01/27 16:33:32;;;;;;;47.28;18.17;;;0.30;99.90;;;;;;7654119;19;20119;-76
2023/01/27 16:36:26;;;;;;;47.83;17.67;;;0.30;99.90;;;;;;7654181;19;20042;-76
2023/01/27 16:39:37;;;;;;;44.42;17.38;;;0.30;99.90;;;;;;7658408;19;20011;-75
2023/01/27 16:42:14;;;;;;;45.08;18.00;;;0.30;99.90;;;;;;7652818;19;20486;-75
2023/01/27 16:44:48;;;;;;;42.97;16.33;;;0.30;99.90;;;;;;7661169;19;20029;-75
2023/01/27 16:47:39;;;;;;;41.03;15.98;;;0.40;99.90;;;;;;7628601;19;20032;-75
2023/01/27 16:50:32;;;;;;;46.55;18.05;;;0.40;99.90;;;;;;7620728;19;20358;-75
2023/01/27 16:53:21;;;;;;;41.40;15.75;;;0.40;99.90;;;;;;7618639;19;20082;-77
2023/01/27 16:56:18;;;;;;;41.55;16.70;;;0.40;99.90;;;;;;7614797;19;20035;-76
2023/01/27 16:58:58;;;;;;;54.92;21.02;;;0.40;99.90;;;;;;7618766;19;20023;-75
2023/01/27 17:01:38;;;;;;;47.83;19.33;;;0.40;99.90;;;;;;7607646;19;20542;-75
2023/01/27 17:04:22;;;;;;;53.78;21.98;;;0.40;99.90;;;;;;7609434;19;20022;-78
2023/01/27 17:07:11;;;;;;;56.33;21.63;;;0.40;99.90;;;;;;7620942;19;20853;-75
2023/01/27 17:09:59;;;;;;;57.47;22.63;;;0.40;99.90;;;;;;7615081;19;20007;-76
2023/01/27 17:12:33;;;;;;;64.88;23.67;;;0.40;99.90;;;;;;7609014;19;20086;-75
2023/01/27 17:15:16;;;;;;;;;;;0.40;99.90;;;;;;7627993;19;20028;-75
2023/01/27 17:17:49;;;;;;;73.32;27.38;;;0.40;99.90;;;;;;7627408;19;20258;-75
2023/01/27 17:20:30;;;;;;;59.80;24.77;;;0.40;99.90;;;;;;7618154;19;20018;-75
2023/01/27 17:23:04;;;;;;;59.50;22.05;;;0.30;99.90;;;;;;7615998;19;20097;-75
2023/01/27 17:25:37;;;;;;;;;;;0.30;99.90;;;;;;7614327;19;20018;-74
2023/01/27 17:28:15;;;;;;;52.83;20.40;;;0.30;99.90;;;;;;7617798;19;20811;-75
2023/01/27 17:30:49;;;;;;;53.90;19.92;;;0.30;99.90;;;;;;7614589;19;20014;-76
2023/01/27 17:33:21;;;;;;;50.67;20.17;;;0.30;99.90;;;;;;7610451;19;20014;-75
2023/01/27 17:35:57;;;;;;;48.72;18.30;;;0.30;99.90;;;;;;7609162;19;20022;-75
2023/01/27 17:38:47;;;;;;;51.60;19.48;;;0.30;99.90;;;;;;7611824;19;20021;-75
2023/01/27 17:41:34;;;;;;;51.30;19.73;;;0.30;99.90;;;;;;7100923;19;10001454;-75
2023/01/27 17:44:14;;;;;;;48.45;18.67;;;0.30;99.90;;;;;;7605221;19;20010;-75
2023/01/27 17:46:45;;;;;;;54.33;19.77;;;0.30;99.90;;;;;;7599562;19;21048;-76
2023/01/27 17:49:18;;;;;;;52.38;19.15;;;0.30;99.90;;;;;;7601268;19;20014;-75
2023/01/27 17:51:56;;;;;;;56.35;22.23;;;0.30;99.90;;;;;;7613192;19;20052;-76
2023/01/27 17:54:40;;;;;;;58.35;21.50;;;0.20;99.90;;;;;;7605251;19;21498;-76
2023/01/27 17:57:20;;;;;;;58.13;22.02;;;0.20;99.90;;;;;;7604222;19;20083;-76
2023/01/27 18:00:03;;;;;;;54.47;21.63;;;0.30;99.90;;;;;;7599569;19;20066;-76
2023/01/27 18:02:46;;;;;;;58.55;21.50;;;0.30;99.90;;;;;;7604449;19;20015;-76
2023/01/27 18:05:24;;;;;;;54.92;23.33;;;0.30;99.90;;;;;;7603366;19;20022;-76
2023/01/27 18:07:56;;;;;;;57.42;23.27;;;0.30;99.90;;;;;;7592804;19;20019;-75
2023/01/27 18:10:28;;;;;;;61.95;24.23;;;0.30;99.90;;;;;;7598061;19;20010;-76
2023/01/27 18:13:27;;;;;;;65.93;25.58;;;0.30;99.90;;;;;;7596874;19;20014;-76
2023/01/27 18:16:13;;;;;;;58.83;24.98;;;0.30;99.90;;;;;;7590744;19;20401;-76
2023/01/27 18:18:47;;;;;;;62.88;25.30;;;0.30;99.90;;;;;;7599103;19;21311;-76
2023/01/27 18:21:23;;;;;;;65.18;26.33;;;0.30;99.90;;;;;;7598531;19;20024;-76
2023/01/27 18:23:57;;;;;;;58.97;26.20;;;0.30;99.90;;;;;;7604515;19;20488;-76
2023/01/27 18:26:41;;;;;;;69.30;26.48;;;0.30;99.90;;;;;;7594847;19;20478;-77
2023/01/27 18:29:36;;;;;;;65.35;27.02;;;0.30;99.90;;;;;;7569024;19;20018;-75
2023/01/27 18:32:13;;;;;;;66.85;28.83;;;0.30;99.90;;;;;;7592950;19;20436;-75
2023/01/27 18:34:48;;;;;;;70.28;29.45;;;0.30;99.90;;;;;;7578616;19;20014;-75
2023/01/27 18:37:34;;;;;;;71.28;29.08;;;0.30;99.90;;;;;;7586886;19;20065;-76
2023/01/27 18:40:35;;;;;;;65.35;25.25;;;0.30;99.90;;;;;;7553904;19;20031;-76
2023/01/27 18:43:08;;;;;;;59.85;25.42;;;0.30;99.90;;;;;;7574037;19;20014;-76
2023/01/27 18:45:42;;;;;;;65.82;27.10;;;0.30;99.90;;;;;;7594458;19;20865;-75
2023/01/27 18:48:16;;;;;;;61.47;25.52;;;0.30;99.90;;;;;;7599540;19;21314;-77
2023/01/27 18:50:49;;;;;;;58.25;24.48;;;0.30;99.90;;;;;;7597324;19;20037;-74
2023/01/27 18:53:21;;;;;;;52.10;23.90;;;0.30;99.90;;;;;;7595652;19;20026;-77
2023/01/27 18:55:53;;;;;;;56.90;23.88;;;0.30;99.90;;;;;;7575439;19;20006;-77
2023/01/27 18:58:26;;;;;;;58.60;24.77;;;0.30;99.90;;;;;;7578114;19;20010;-76
2023/01/27 19:00:59;;;;;;;63.22;26.85;;;0.30;99.90;;;;;;7600566;19;20014;-77
2023/01/27 19:03:35;;;;;;;55.75;23.15;;;0.30;99.90;;;;;;7594187;19;20006;-76
2023/01/27 19:06:15;;;;;;;56.63;25.55;;;0.30;99.90;;;;;;7583274;19;20025;-76
2023/01/27 19:08:49;;;;;;;59.13;27.15;;;0.30;99.90;;;;;;7568362;19;20022;-76
2023/01/27 19:11:21;;;;;;;57.03;25.40;;;0.30;99.90;;;;;;7587019;19;20018;-76
2023/01/27 19:13:54;;;;;;;61.85;25.58;;;0.30;99.90;;;;;;7594823;19;20035;-76
2023/01/27 19:16:26;;;;;;;61.60;27.58;;;0.30;99.90;;;;;;7579507;19;20018;-76
2023/01/27 19:19:00;;;;;;;60.92;26.65;;;0.30;99.90;;;;;;7576984;19;20015;-77
2023/01/27 19:21:33;;;;;;;55.03;25.45;;;0.20;99.90;;;;;;7573577;19;20010;-76
2023/01/27 19:24:09;;;;;;;57.20;26.30;;;0.30;99.90;;;;;;7582478;19;20015;-76
2023/01/27 19:26:41;;;;;;;59.25;24.83;;;0.30;99.90;;;;;;7573066;19;20291;-76
2023/01/27 19:29:13;;;;;;;50.80;22.37;;;0.30;99.90;;;;;;7579425;19;20026;-77
2023/01/27 19:31:46;;;;;;;56.55;24.08;;;0.30;99.90;;;;;;7589472;19;20098;-75
2023/01/27 19:34:18;;;;;;;53.15;23.13;;;0.30;99.90;;;;;;7592194;19;20354;-75
2023/01/27 19:36:51;;;;;;;56.03;23.23;;;0.30;99.90;;;;;;7599954;19;20453;-77
2023/01/27 19:39:23;;;;;;;50.72;23.20;;;0.30;99.90;;;;;;7590948;19;20018;-77
2023/01/27 19:41:55;;;;;;;54.55;23.42;;;0.30;99.90;;;;;;7581076;19;20012;-75
2023/01/27 19:44:27;;;;;;;54.75;23.00;;;0.20;99.90;;;;;;7562709;19;20117;-75
2023/01/27 19:46:59;;;;;;;65.22;24.60;;;0.30;99.90;;;;;;7572901;19;20518;-76
2023/01/27 19:49:31;;;;;;;72.15;27.55;;;0.30;99.90;;;;;;7574611;19;20018;-76
2023/01/27 19:52:04;;;;;;;128.68;51.20;;;0.20;99.90;;;;;;7584994;19;20094;-76
2023/01/27 19:54:36;;;;;;;79.78;33.85;;;0.20;99.90;;;;;;7592022;19;20086;-76
2023/01/27 19:57:15;;;;;;;58.58;25.20;;;0.20;99.90;;;;;;7577797;19;20461;-76
2023/01/27 19:59:47;;;;;;;84.10;33.53;;;0.20;99.90;;;;;;7580082;19;20023;-76
2023/01/27 20:02:19;;;;;;;62.17;25.98;;;0.20;99.90;;;;;;7571063;19;20629;-76
2023/01/27 20:04:51;;;;;;;68.50;29.13;;;0.20;99.90;;;;;;7577740;19;20028;-76
2023/01/27 20:07:23;;;;;;;68.72;29.73;;;0.20;99.90;;;;;;7561758;19;20015;-76
2023/01/27 20:09:56;;;;;;;77.15;29.00;;;0.10;99.90;;;;;;7580456;19;20019;-75
2023/01/27 20:12:28;;;;;;;64.93;25.67;;;0.10;99.90;;;;;;7559967;19;20018;-75
2023/01/27 20:15:00;;;;;;;80.65;31.63;;;0.10;99.90;;;;;;7547878;19;20011;-75
2023/01/27 20:17:32;;;;;;;70.93;29.88;;;0.10;99.90;;;;;;7584419;19;20029;-75
2023/01/27 20:20:05;;;;;;;86.35;42.95;;;0.10;99.90;;;;;;7587521;19;20639;-76
2023/01/27 20:22:37;;;;;;;108.50;46.53;;;0.00;99.90;;;;;;7592881;19;20018;-76
2023/01/27 20:25:14;;;;;;;129.70;50.90;;;0.00;99.90;;;;;;7574163;19;20022;-76
2023/01/27 20:27:56;;;;;;;94.82;36.67;;;0.10;99.90;;;;;;7561183;19;20565;-76
2023/01/27 20:30:31;;;;;;;66.25;25.73;;;0.10;99.90;;;;;;7590778;19;20038;-76
2023/01/27 20:33:04;;;;;;;62.70;24.38;;;0.00;99.90;;;;;;7593658;19;20017;-76
2023/01/27 20:35:37;;;;;;;77.13;35.63;;;0.00;99.90;;;;;;7598912;19;20015;-76
2023/01/27 20:38:09;;;;;;;67.45;25.85;;;0.10;99.90;;;;;;7580781;19;20010;-76
2023/01/27 20:40:41;;;;;;;65.03;26.30;;;0.10;99.90;;;;;;7580801;19;20018;-76
2023/01/27 20:43:13;;;;;;;65.50;25.17;;;0.10;99.90;;;;;;7578594;19;20018;-76
2023/01/27 20:46:04;;;;;;;65.60;24.55;;;0.00;99.90;;;;;;7572604;19;20026;-76
2023/01/27 20:48:36;;;;;;;65.00;25.50;;;-0.10;99.90;;;;;;7551990;19;20022;-76
2023/01/27 20:51:12;;;;;;;70.47;26.07;;;0.00;99.90;;;;;;7581934;19;20089;-76
2023/01/27 20:53:45;;;;;;;64.10;24.65;;;0.00;99.90;;;;;;7578107;19;20023;-76
2023/01/27 20:56:19;;;;;;;78.50;27.97;;;0.00;99.90;;;;;;7601760;19;20964;-76
2023/01/27 20:58:53;;;;;;;69.72;27.77;;;0.10;99.90;;;;;;7590617;19;20762;-75
2023/01/27 21:01:25;;;;;;;69.68;27.55;;;0.10;99.90;;;;;;7577556;19;20026;-76
2023/01/27 21:03:57;;;;;;;74.13;27.02;;;0.00;99.90;;;;;;7582774;19;20057;-78
